createdAt,value
2022-12-03T00:02:12.852Z,101512.75
2022-12-03T00:04:39.466Z,101513.53
2022-12-03T00:07:06.006Z,101514.53
2022-12-03T00:09:32.737Z,101509.31
2022-12-03T00:11:59.340Z,101515.63
2022-12-03T00:14:25.911Z,101509.63
2022-12-03T00:16:52.396Z,101497.28
2022-12-03T00:19:18.904Z,101499.06
2022-12-03T00:21:45.374Z,101493.84
2022-12-03T00:24:11.879Z,101500.06
2022-12-03T00:26:38.394Z,101496.66
2022-12-03T00:29:04.993Z,101501.88
2022-12-03T00:31:31.580Z,101509.69
2022-12-03T00:33:58.268Z,101506.09
2022-12-03T00:36:24.900Z,101509.69
2022-12-03T00:38:53.888Z,101503.56
2022-12-03T00:41:20.691Z,101512.41
2022-12-03T00:43:47.373Z,101498.44
2022-12-03T00:46:16.909Z,101501.88
2022-12-03T00:48:47.496Z,101497.53
2022-12-03T00:51:13.986Z,101505.47
2022-12-03T00:53:40.940Z,101503.75
2022-12-03T00:56:07.851Z,101502.88
2022-12-03T00:58:34.409Z,101498.44
2022-12-03T01:01:00.931Z,101492.53
2022-12-03T01:03:27.697Z,101496.84
2022-12-03T01:05:54.361Z,101496.03
2022-12-03T01:08:20.926Z,101507.19
2022-12-03T01:10:47.567Z,101502.66
2022-12-03T01:13:14.075Z,101499.97
2022-12-03T01:15:40.708Z,101498.28
2022-12-03T01:18:07.568Z,101500.69
2022-12-03T01:20:36.236Z,101497.78
2022-12-03T01:23:02.869Z,101507.13
2022-12-03T01:25:29.451Z,101512.94
2022-12-03T01:27:56.032Z,101504.94
2022-12-03T01:30:22.535Z,101505.84
2022-12-03T01:32:49.043Z,101499.72
2022-12-03T01:35:15.650Z,101504.94
2022-12-03T01:37:42.211Z,101505.72
2022-12-03T01:40:13.464Z,101499.72
2022-12-03T01:42:41.298Z,101495.53
2022-12-03T01:45:14.642Z,101494.53
2022-12-03T01:47:41.362Z,101496.81
2022-12-03T01:50:33.093Z,101506.16
2022-12-03T01:53:01.643Z,101502.69
2022-12-03T01:55:28.554Z,101500.94
2022-12-03T01:57:58.895Z,101498.34
2022-12-03T02:00:27.598Z,101504.56
2022-12-03T02:02:59.393Z,101499.34
2022-12-03T02:05:28.532Z,101498.44
2022-12-03T02:07:55.662Z,101500.94
2022-12-03T02:10:38.248Z,101504.38
2022-12-03T02:13:10.282Z,101504.28
2022-12-03T02:15:39.284Z,101497.16
2022-12-03T02:18:07.971Z,101502.19
2022-12-03T02:20:44.246Z,101504.88
2022-12-03T02:23:17.198Z,101496.16
2022-12-03T02:25:43.805Z,101498.75
2022-12-03T02:28:10.824Z,101497.16
2022-12-03T02:30:37.682Z,101507.59
2022-12-03T02:33:04.622Z,101494.63
2022-12-03T02:35:33.881Z,101500.69
2022-12-03T02:38:10.878Z,101504.19
2022-12-03T02:40:38.346Z,101499.94
2022-12-03T02:43:05.853Z,101501.84
2022-12-03T02:45:36.438Z,101504.56
2022-12-03T02:48:10.334Z,101496.56
2022-12-03T02:50:41.434Z,101507.75
2022-12-03T02:53:13.895Z,101502.38
2022-12-03T02:55:41.392Z,101495.38
2022-12-03T02:58:08.882Z,101499.75
2022-12-03T03:00:36.546Z,101499.75
2022-12-03T03:03:05.089Z,101503.97
2022-12-03T03:05:33.484Z,101501.97
2022-12-03T03:08:00.757Z,101496.56
2022-12-03T03:10:29.171Z,101500.00
2022-12-03T03:12:56.183Z,101494.56
2022-12-03T03:15:23.742Z,101498.91
2022-12-03T03:17:50.929Z,101492.78
2022-12-03T03:20:18.504Z,101497.59
2022-12-03T03:22:45.030Z,101496.59
2022-12-03T03:25:18.622Z,101500.03
2022-12-03T03:27:45.843Z,101506.22
2022-12-03T03:30:13.894Z,101501.03
2022-12-03T03:32:42.555Z,101501.81
2022-12-03T03:35:10.737Z,101491.38
2022-12-03T03:37:38.176Z,101490.50
2022-12-03T03:40:05.311Z,101485.16
2022-12-03T03:42:31.853Z,101490.59
2022-12-03T03:44:58.469Z,101489.88
2022-12-03T03:47:25.752Z,101498.69
2022-12-03T03:49:53.017Z,101490.97
2022-12-03T03:52:20.356Z,101489.34
2022-12-03T03:54:47.336Z,101492.19
2022-12-03T03:57:14.354Z,101480.94
2022-12-03T03:59:41.203Z,101492.19
2022-12-03T04:02:17.663Z,101481.53
2022-12-03T04:04:44.552Z,101480.75
2022-12-03T04:07:11.063Z,101482.53
2022-12-03T04:09:37.630Z,101479.94
2022-12-03T04:12:23.082Z,101485.97
2022-12-03T04:14:49.646Z,101482.53
2022-12-03T04:17:16.193Z,101476.44
2022-12-03T04:19:42.945Z,101475.31
2022-12-03T04:22:28.187Z,101478.56
2022-12-03T04:25:17.302Z,101474.75
2022-12-03T04:28:03.653Z,101469.53
2022-12-03T04:30:30.569Z,101471.25
2022-12-03T04:33:15.603Z,101473.97
2022-12-03T04:35:45.106Z,101470.44
2022-12-03T04:38:13.639Z,101471.03
2022-12-03T04:40:59.535Z,101468.34
2022-12-03T04:43:26.993Z,101474.16
2022-12-03T04:45:54.854Z,101473.06
2022-12-03T04:48:21.626Z,101477.41
2022-12-03T04:50:48.438Z,101471.38
2022-12-03T04:53:14.941Z,101466.06
2022-12-03T04:55:41.572Z,101476.38
2022-12-03T04:58:09.472Z,101474.56
2022-12-03T05:00:36.061Z,101468.34
2022-12-03T05:03:02.675Z,101481.28
2022-12-03T05:05:29.244Z,101471.59
2022-12-03T05:07:55.800Z,101469.09
2022-12-03T05:10:22.362Z,101468.25
2022-12-03T05:12:48.835Z,101473.56
2022-12-03T05:15:15.447Z,101464.78
2022-12-03T05:17:42.038Z,101458.56
2022-12-03T05:20:28.165Z,101464.56
2022-12-03T05:22:54.774Z,101457.56
2022-12-03T05:25:21.320Z,101455.75
2022-12-03T05:27:47.769Z,101454.88
2022-12-03T05:30:14.955Z,101454.88
2022-12-03T05:32:41.540Z,101462.56
2022-12-03T05:35:09.510Z,101455.56
2022-12-03T05:37:36.107Z,101457.34
2022-12-03T05:40:03.479Z,101460.16
2022-12-03T05:42:48.559Z,101455.06
2022-12-03T05:45:15.303Z,101467.25
2022-12-03T05:47:41.822Z,101458.56
2022-12-03T05:50:08.522Z,101466.38
2022-12-03T05:52:35.071Z,101463.69
2022-12-03T05:55:01.862Z,101457.56
2022-12-03T05:57:28.697Z,101453.34
2022-12-03T05:59:55.226Z,101449.94
2022-12-03T06:02:22.000Z,101451.53
2022-12-03T06:04:48.609Z,101455.66
2022-12-03T06:07:15.125Z,101454.66
2022-12-03T06:09:41.668Z,101452.94
2022-12-03T06:12:11.716Z,101453.97
2022-12-03T06:14:38.249Z,101449.16
2022-12-03T06:17:05.064Z,101450.94
2022-12-03T06:19:31.561Z,101452.72
2022-12-03T06:21:58.133Z,101442.53
2022-12-03T06:24:24.716Z,101451.13
2022-12-03T06:26:51.244Z,101454.53
2022-12-03T06:29:17.882Z,101452.53
2022-12-03T06:31:44.484Z,101450.66
2022-12-03T06:34:11.103Z,101455.66
2022-12-03T06:36:37.645Z,101452.94
2022-12-03T06:39:04.145Z,101455.66
2022-12-03T06:41:31.234Z,101455.56
2022-12-03T06:43:57.813Z,101455.47
2022-12-03T06:46:24.446Z,101454.28
2022-12-03T06:48:51.118Z,101453.03
2022-12-03T06:51:17.724Z,101452.09
2022-12-03T06:53:44.203Z,101456.56
2022-12-03T06:56:10.854Z,101450.56
2022-12-03T06:58:37.384Z,101449.56
2022-12-03T07:01:03.909Z,101452.97
2022-12-03T07:03:30.583Z,101453.97
2022-12-03T07:05:57.115Z,101454.06
2022-12-03T07:08:23.677Z,101461.19
2022-12-03T07:10:50.456Z,101449.94
2022-12-03T07:13:17.270Z,101447.56
2022-12-03T07:15:43.886Z,101445.81
2022-12-03T07:18:10.425Z,101447.97
2022-12-03T07:20:37.427Z,101443.03
2022-12-03T07:23:03.981Z,101443.94
2022-12-03T07:25:30.571Z,101445.06
2022-12-03T07:27:57.167Z,101441.94
2022-12-03T07:30:25.532Z,101439.34
2022-12-03T07:32:52.180Z,101441.94
2022-12-03T07:35:18.820Z,101432.94
2022-12-03T07:37:45.602Z,101433.53
2022-12-03T07:40:12.566Z,101433.34
2022-12-03T07:42:39.491Z,101434.94
2022-12-03T07:45:06.612Z,101426.81
2022-12-03T07:47:33.114Z,101432.03
2022-12-03T07:49:59.592Z,101423.53
2022-12-03T07:52:26.087Z,101428.13
2022-12-03T07:54:52.839Z,101427.31
2022-12-03T07:57:19.696Z,101427.53
2022-12-03T07:59:46.302Z,101421.53
2022-12-03T08:02:16.857Z,101423.53
2022-12-03T08:04:47.445Z,101423.53
2022-12-03T08:07:13.972Z,101431.34
2022-12-03T08:09:41.011Z,101434.81
2022-12-03T08:12:18.082Z,101421.91
2022-12-03T08:14:44.609Z,101428.81
2022-12-03T08:17:12.904Z,101419.19
2022-12-03T08:19:44.651Z,101423.44
2022-12-03T08:22:14.032Z,101420.09
2022-12-03T08:24:40.954Z,101424.63
2022-12-03T08:27:18.987Z,101420.50
2022-12-03T08:29:46.446Z,101417.09
2022-12-03T08:32:13.828Z,101425.13
2022-12-03T08:34:43.747Z,101408.84
2022-12-03T08:37:19.626Z,101417.06
2022-12-03T08:39:48.806Z,101418.25
2022-12-03T08:42:44.540Z,101418.47
2022-12-03T08:45:40.299Z,101412.53
2022-12-03T08:48:18.519Z,101410.00
2022-12-03T08:50:45.210Z,101414.22
2022-12-03T08:53:31.133Z,101407.03
2022-12-03T08:56:30.820Z,101414.63
2022-12-03T08:59:24.038Z,101409.44
2022-12-03T09:01:51.699Z,101413.75
2022-12-03T09:04:38.803Z,101413.03
2022-12-03T09:07:05.409Z,101415.56
2022-12-03T09:09:31.984Z,101412.84
2022-12-03T09:11:58.558Z,101414.63
2022-12-03T09:14:25.135Z,101419.84
2022-12-03T09:16:55.570Z,101414.63
2022-12-03T09:19:27.345Z,101424.47
2022-12-03T09:21:54.615Z,101417.66
2022-12-03T09:24:21.467Z,101424.78
2022-12-03T09:26:48.047Z,101412.75
2022-12-03T09:29:14.742Z,101417.03
2022-12-03T09:31:41.514Z,101415.53
2022-12-03T09:34:08.812Z,101409.59
2022-12-03T09:36:36.477Z,101406.09
2022-12-03T09:39:04.749Z,101407.19
2022-12-03T09:41:31.330Z,101408.38
2022-12-03T09:44:05.857Z,101411.16
2022-12-03T09:46:36.200Z,101406.16
2022-12-03T09:49:04.957Z,101405.34
2022-12-03T09:51:34.431Z,101408.25
2022-12-03T09:54:03.588Z,101392.06
2022-12-03T09:56:30.531Z,101393.25
2022-12-03T09:58:57.059Z,101385.06
2022-12-03T10:01:27.903Z,101388.06
2022-12-03T10:03:56.546Z,101386.63
2022-12-03T10:06:23.651Z,101383.50
2022-12-03T10:08:53.525Z,101374.38
2022-12-03T10:11:23.194Z,101376.38
2022-12-03T10:13:52.361Z,101370.47
2022-12-03T10:16:21.080Z,101376.75
2022-12-03T10:18:56.552Z,101383.97
2022-12-03T10:21:30.629Z,101373.69
2022-12-03T10:24:21.994Z,101373.31
2022-12-03T10:26:50.974Z,101356.97
2022-12-03T10:29:29.672Z,101357.13
2022-12-03T10:32:08.041Z,101359.91
2022-12-03T10:34:40.398Z,101351.91
2022-12-03T10:37:22.466Z,101352.53
2022-12-03T10:40:09.063Z,101351.19
2022-12-03T10:42:38.859Z,101351.19
2022-12-03T10:45:23.067Z,101343.44
2022-12-03T10:48:19.139Z,101348.31
2022-12-03T10:50:54.528Z,101340.38
2022-12-03T10:53:23.958Z,101341.00
2022-12-03T10:55:51.902Z,101340.75
2022-12-03T10:58:22.487Z,101339.59
2022-12-03T11:00:51.227Z,101342.22
2022-12-03T11:03:26.661Z,101345.00
2022-12-03T11:05:55.427Z,101339.94
2022-12-03T11:08:34.726Z,101344.28
2022-12-03T11:11:04.805Z,101341.66
2022-12-03T11:13:34.050Z,101339.94
2022-12-03T11:16:05.263Z,101335.72
2022-12-03T11:18:34.775Z,101335.88
2022-12-03T11:21:04.395Z,101328.16
2022-12-03T11:23:49.388Z,101324.00
2022-12-03T11:26:19.497Z,101322.19
2022-12-03T11:28:46.310Z,101321.03
2022-12-03T11:31:46.596Z,101317.44
2022-12-03T11:34:19.724Z,101321.88
2022-12-03T11:37:11.837Z,101320.13
2022-12-03T11:39:50.684Z,101326.19
2022-12-03T11:42:26.316Z,101313.06
2022-12-03T11:45:14.446Z,101318.25
2022-12-03T11:47:59.313Z,101309.69
2022-12-03T11:50:50.286Z,101301.88
2022-12-03T11:53:26.818Z,101301.16
2022-12-03T11:56:08.459Z,101308.97
2022-12-03T11:58:38.209Z,101301.88
2022-12-03T12:01:07.159Z,101301.88
2022-12-03T12:03:36.905Z,101307.00
2022-12-03T12:06:21.367Z,101301.63
2022-12-03T12:08:50.827Z,101295.31
2022-12-03T12:11:29.485Z,101291.81
2022-12-03T12:14:01.414Z,101299.78
2022-12-03T12:16:45.943Z,101299.78
2022-12-03T12:19:28.584Z,101293.94
2022-12-03T12:21:56.152Z,101289.81
2022-12-03T12:24:40.556Z,101291.69
2022-12-03T12:27:14.770Z,101290.00
2022-12-03T12:29:43.359Z,101282.06
2022-12-03T12:32:10.627Z,101281.19
2022-12-03T12:34:38.982Z,101284.59
2022-12-03T12:37:10.876Z,101280.34
2022-12-03T12:39:38.748Z,101277.81
2022-12-03T12:42:27.401Z,101275.41
2022-12-03T12:44:54.967Z,101281.50
2022-12-03T12:47:21.547Z,101278.09
2022-12-03T12:49:51.936Z,101278.97
2022-12-03T12:52:18.884Z,101268.66
2022-12-03T12:54:45.551Z,101268.00
2022-12-03T12:57:21.583Z,101256.84
2022-12-03T12:59:48.493Z,101261.34
2022-12-03T13:02:30.260Z,101260.44
2022-12-03T13:04:57.461Z,101250.69
2022-12-03T13:07:25.715Z,101246.94
2022-12-03T13:09:55.827Z,101244.25
2022-12-03T13:12:24.191Z,101246.03
2022-12-03T13:14:52.138Z,101240.03
2022-12-03T13:17:24.323Z,101248.00
2022-12-03T13:20:00.464Z,101246.38
2022-12-03T13:22:32.027Z,101250.97
2022-12-03T13:25:37.974Z,101246.66
2022-12-03T13:28:08.012Z,101244.75
2022-12-03T13:30:34.515Z,101246.47
2022-12-03T13:33:08.242Z,101249.00
2022-12-03T13:35:36.160Z,101249.91
2022-12-03T13:38:10.082Z,101250.78
2022-12-03T13:40:37.437Z,101242.06
2022-12-03T13:43:05.010Z,101237.00
2022-12-03T13:45:38.567Z,101232.50
2022-12-03T13:48:29.021Z,101241.25
2022-12-03T13:50:56.420Z,101235.31
2022-12-03T13:53:25.728Z,101236.31
2022-12-03T13:56:14.587Z,101225.84
2022-12-03T13:58:41.142Z,101226.56
2022-12-03T14:01:07.967Z,101221.34
2022-12-03T14:03:34.896Z,101230.00
2022-12-03T14:06:01.500Z,101225.50
2022-12-03T14:08:28.024Z,101225.34
2022-12-03T14:11:00.136Z,101225.34
2022-12-03T14:13:27.182Z,101226.13
2022-12-03T14:15:53.841Z,101224.34
2022-12-03T14:18:20.380Z,101214.56
2022-12-03T14:20:47.047Z,101213.56
2022-12-03T14:23:14.931Z,101204.66
2022-12-03T14:25:43.798Z,101203.75
2022-12-03T14:28:10.606Z,101199.44
2022-12-03T14:30:37.268Z,101193.25
2022-12-03T14:33:04.737Z,101199.22
2022-12-03T14:35:31.233Z,101192.00
2022-12-03T14:37:57.748Z,101190.13
2022-12-03T14:40:24.338Z,101195.25
2022-12-03T14:42:50.945Z,101198.78
2022-12-03T14:45:17.601Z,101206.53
2022-12-03T14:47:44.159Z,101208.22
2022-12-03T14:50:14.200Z,101217.84
2022-12-03T14:52:41.097Z,101216.84
2022-12-03T14:55:07.964Z,101215.91
2022-12-03T14:57:36.735Z,101213.16
2022-12-03T15:00:05.456Z,101203.63
2022-12-03T15:02:32.464Z,101208.16
2022-12-03T15:04:59.160Z,101212.44
2022-12-03T15:07:26.633Z,101200.03
2022-12-03T15:09:53.511Z,101206.09
2022-12-03T15:12:20.367Z,101201.78
2022-12-03T15:14:47.569Z,101208.78
2022-12-03T15:17:14.321Z,101196.56
2022-12-03T15:19:41.118Z,101209.69
2022-12-03T15:22:07.898Z,101210.41
2022-12-03T15:24:34.463Z,101202.56
2022-12-03T15:27:01.053Z,101207.72
2022-12-03T15:29:27.637Z,101212.00
2022-12-03T15:31:54.281Z,101206.78
2022-12-03T15:34:23.007Z,101208.63
2022-12-03T15:36:49.839Z,101212.00
2022-12-03T15:39:16.362Z,101212.00
2022-12-03T15:41:42.893Z,101207.63
2022-12-03T15:44:09.508Z,101211.03
2022-12-03T15:46:36.207Z,101216.25
2022-12-03T15:49:02.832Z,101205.81
2022-12-03T15:51:29.362Z,101212.22
2022-12-03T15:53:56.029Z,101216.69
2022-12-03T15:56:22.593Z,101202.94
2022-12-03T15:58:49.079Z,101213.28
2022-12-03T16:01:18.045Z,101190.50
2022-12-03T16:03:45.653Z,101200.94
2022-12-03T16:06:12.688Z,101202.56
2022-12-03T16:08:39.245Z,101201.50
2022-12-03T16:11:06.039Z,101203.19
2022-12-03T16:13:32.628Z,101209.25
2022-12-03T16:15:59.664Z,101207.44
2022-12-03T16:18:26.329Z,101215.25
2022-12-03T16:20:52.956Z,101210.88
2022-12-03T16:23:22.553Z,101211.56
2022-12-03T16:25:49.053Z,101207.97
2022-12-03T16:28:15.769Z,101210.69
2022-12-03T16:30:42.383Z,101208.88
2022-12-03T16:33:09.193Z,101206.19
2022-12-03T16:35:37.120Z,101207.91
2022-12-03T16:38:03.750Z,101208.88
2022-12-03T16:40:30.288Z,101208.19
2022-12-03T16:42:56.866Z,101203.88
2022-12-03T16:45:29.197Z,101208.25
2022-12-03T16:47:55.786Z,101205.66
2022-12-03T16:50:29.386Z,101209.94
2022-12-03T16:52:57.997Z,101209.88
2022-12-03T16:55:24.816Z,101209.09
2022-12-03T16:57:51.501Z,101210.88
2022-12-03T17:00:18.406Z,101220.38
2022-12-03T17:02:45.119Z,101217.88
2022-12-03T17:05:11.714Z,101211.03
2022-12-03T17:07:38.304Z,101213.84
2022-12-03T17:10:06.040Z,101211.22
2022-12-03T17:12:54.143Z,101219.06
2022-12-03T17:15:19.263Z,101214.00
2022-12-03T17:17:46.219Z,101209.75
2022-12-03T17:20:14.838Z,101205.47
2022-12-03T17:22:42.088Z,101208.16
2022-12-03T17:25:09.467Z,101200.25
2022-12-03T17:27:40.806Z,101199.41
2022-12-03T17:30:12.657Z,101200.41
2022-12-03T17:32:39.401Z,101204.00
2022-12-03T17:35:06.761Z,101201.63
2022-12-03T17:37:33.860Z,101207.19
2022-12-03T17:40:00.541Z,101194.31
2022-12-03T17:42:27.169Z,101198.72
2022-12-03T17:44:53.737Z,101191.88
2022-12-03T17:47:24.477Z,101190.97
2022-12-03T17:49:51.129Z,101190.97
2022-12-03T17:52:17.757Z,101191.06
2022-12-03T17:55:09.179Z,101195.44
2022-12-03T17:57:30.905Z,101188.59
2022-12-03T17:59:57.614Z,101181.59
2022-12-03T18:02:24.502Z,101183.31
2022-12-03T18:04:51.117Z,101183.38
2022-12-03T18:07:17.758Z,101178.00
2022-12-03T18:09:44.357Z,101181.53
2022-12-03T18:12:11.074Z,101182.31
2022-12-03T18:14:37.851Z,101188.28
2022-12-03T18:17:04.384Z,101185.69
2022-12-03T18:19:31.086Z,101194.38
2022-12-03T18:21:57.687Z,101190.06
2022-12-03T18:24:25.169Z,101182.16
2022-12-03T18:26:51.784Z,101183.78
2022-12-03T18:29:18.298Z,101183.72
2022-12-03T18:31:45.011Z,101187.22
2022-12-03T18:34:11.572Z,101182.72
2022-12-03T18:36:38.138Z,101175.53
2022-12-03T18:39:08.468Z,101170.16
2022-12-03T18:41:35.796Z,101174.47
2022-12-03T18:44:09.488Z,101173.41
2022-12-03T18:49:23.166Z,101171.53
2022-12-03T18:51:53.320Z,101171.41
2022-12-03T18:54:22.543Z,101178.38
2022-12-03T18:56:49.165Z,101177.47
2022-12-03T18:59:16.154Z,101168.66
2022-12-03T19:01:42.683Z,101164.44
2022-12-03T19:04:10.454Z,101174.84
2022-12-03T19:06:37.556Z,101170.53
2022-12-03T19:09:04.720Z,101164.59
2022-12-03T19:11:31.335Z,101168.19
2022-12-03T19:13:59.033Z,101165.72
2022-12-03T19:16:26.034Z,101168.53
2022-12-03T19:18:53.977Z,101162.41
2022-12-03T19:21:20.804Z,101172.03
2022-12-03T19:26:37.407Z,101172.84
2022-12-03T19:29:04.250Z,101165.66
2022-12-03T19:31:33.351Z,101164.66
2022-12-03T19:34:00.213Z,101156.69
2022-12-03T19:36:29.536Z,101158.22
2022-12-03T19:38:58.495Z,101159.84
2022-12-03T19:41:28.105Z,101155.44
2022-12-03T19:43:56.076Z,101158.06
2022-12-03T19:46:24.530Z,101166.75
2022-12-03T19:48:51.407Z,101168.22
2022-12-03T19:51:34.035Z,101172.38
2022-12-03T19:54:02.332Z,101168.78
2022-12-03T19:56:30.368Z,101161.84
2022-12-03T19:59:00.171Z,101161.78
2022-12-03T20:01:31.713Z,101163.38
2022-12-03T20:04:02.740Z,101162.56
2022-12-03T20:06:32.142Z,101161.50
2022-12-03T20:09:07.046Z,101167.53
2022-12-03T20:11:35.348Z,101159.63
2022-12-03T20:14:06.295Z,101166.63
2022-12-03T20:16:33.607Z,101161.41
2022-12-03T20:19:02.897Z,101166.38
2022-12-03T20:21:37.783Z,101164.31
2022-12-03T20:24:05.954Z,101164.13
2022-12-03T20:26:32.878Z,101162.19
2022-12-03T20:29:00.282Z,101161.28
2022-12-03T20:31:29.974Z,101160.44
2022-12-03T20:34:00.292Z,101158.59
2022-12-03T20:36:28.475Z,101163.06
2022-12-03T20:38:56.730Z,101156.16
2022-12-03T20:41:23.450Z,101157.06
2022-12-03T20:43:51.088Z,101153.53
2022-12-03T20:46:20.821Z,101150.84
2022-12-03T20:48:47.901Z,101159.56
2022-12-03T20:51:19.973Z,101152.47
2022-12-03T20:53:46.994Z,101161.97
2022-12-03T20:56:20.258Z,101157.31
2022-12-03T20:58:48.762Z,101158.22
2022-12-03T21:01:17.051Z,101156.59
2022-12-03T21:03:44.536Z,101157.59
2022-12-03T21:06:12.111Z,101155.06
2022-12-03T21:08:41.992Z,101161.09
2022-12-03T21:11:14.880Z,101150.47
2022-12-03T21:13:43.442Z,101149.63
2022-12-03T21:16:15.700Z,101156.53
2022-12-03T21:18:42.389Z,101153.00
2022-12-03T21:21:11.669Z,101147.78
2022-12-03T21:23:38.359Z,101150.41
2022-12-03T21:26:17.660Z,101141.88
2022-12-03T21:28:50.399Z,101149.78
2022-12-03T21:31:19.822Z,101140.06
2022-12-03T21:33:47.017Z,101136.38
2022-12-03T21:36:15.962Z,101141.44
2022-12-03T21:38:44.117Z,101141.44
2022-12-03T21:41:12.840Z,101138.75
2022-12-03T21:43:39.387Z,101139.44
2022-12-03T21:47:09.748Z,101135.13
2022-12-03T21:48:57.254Z,101143.03
2022-12-03T21:51:23.877Z,101143.88
2022-12-03T21:53:50.833Z,101136.13
2022-12-03T21:56:19.249Z,101143.28
2022-12-03T21:58:46.313Z,101145.09
2022-12-03T22:01:16.768Z,101145.19
2022-12-03T22:03:44.048Z,101143.56
2022-12-03T22:06:11.306Z,101143.81
2022-12-03T22:08:38.443Z,101143.09
2022-12-03T22:11:07.007Z,101133.59
2022-12-03T22:13:33.585Z,101134.28
2022-12-03T22:16:03.481Z,101141.31
2022-12-03T22:18:30.186Z,101136.13
2022-12-03T22:20:56.715Z,101134.38
2022-12-03T22:23:23.232Z,101138.88
2022-12-03T22:25:58.121Z,101131.97
2022-12-03T22:28:24.717Z,101133.66
2022-12-03T22:30:51.217Z,101130.00
2022-12-03T22:33:17.798Z,101127.28
2022-12-03T22:35:44.459Z,101130.00
2022-12-03T22:38:12.008Z,101129.09
2022-12-03T22:40:39.506Z,101130.91
2022-12-03T22:43:05.985Z,101136.97
2022-12-03T22:45:35.095Z,101136.97
2022-12-03T22:48:02.716Z,101130.91
2022-12-03T22:50:29.293Z,101131.78
2022-12-03T22:52:55.834Z,101118.72
2022-12-03T22:55:22.361Z,101121.44
2022-12-03T22:57:48.994Z,101126.56
2022-12-03T23:00:28.110Z,101122.16
2022-12-03T23:02:54.665Z,101113.44
2022-12-03T23:05:21.195Z,101118.56
2022-12-03T23:07:47.751Z,101114.91
2022-12-03T23:10:14.425Z,101104.31
2022-12-03T23:12:40.981Z,101106.72
2022-12-03T23:15:08.513Z,101104.94
2022-12-03T23:17:36.297Z,101098.72
2022-12-03T23:20:03.991Z,101098.66
2022-12-03T23:22:30.515Z,101094.50
2022-12-03T23:24:57.149Z,101095.28
2022-12-03T23:27:23.625Z,101095.13
2022-12-03T23:29:50.123Z,101092.44
2022-12-03T23:32:16.674Z,101085.44
2022-12-03T23:34:43.248Z,101089.00
2022-12-03T23:37:09.892Z,101081.09
2022-12-03T23:39:36.374Z,101096.59
2022-12-03T23:42:03.771Z,101097.28
2022-12-03T23:44:30.305Z,101091.09
2022-12-03T23:46:57.253Z,101083.13
2022-12-03T23:49:23.945Z,101087.41
2022-12-03T23:51:50.731Z,101084.66
2022-12-03T23:54:17.299Z,101088.88
2022-12-03T23:56:43.926Z,101081.69
2022-12-03T23:59:10.457Z,101078.09
